Time;durP1;ratioP1;P1;durP2;ratioP2;P2;SDS_P1;SDS_P2;PMS_P1;PMS_P2;Temp;Humidity;BMP_temperature;BMP_pressure;BME280_temperature;BME280_humidity;BME280_pressure;Samples;Min_cycle;Max_cycle;Signal;HPM_P1;HPM_P2
2022/01/28 05:50:23;;;;;;;8.50;1.85;;;;;;;1.76;77.61;99886.16;4984865;28;105953;-71
2022/01/28 05:52:49;;;;;;;5.57;1.60;;;;;;;1.86;78.16;99891.56;4985134;28;105818;-72
2022/01/28 05:55:14;;;;;;;7.82;1.65;;;;;;;1.98;78.39;99903.72;4983548;28;106351;-71
2022/01/28 05:57:39;;;;;;;2.05;1.08;;;;;;;2.12;78.25;99899.97;4983966;28;106082;-69
2022/01/28 06:00:05;;;;;;;9.05;1.90;;;;;;;2.24;78.59;99907.81;4984738;28;105854;-71
2022/01/28 06:02:31;;;;;;;5.20;1.98;;;;;;;2.34;78.01;99909.59;4985728;28;106142;-70
2022/01/28 06:04:56;;;;;;;7.00;1.40;;;;;;;2.46;77.90;99909.56;4984296;28;116102;-71
2022/01/28 06:07:21;;;;;;;4.35;1.13;;;;;;;2.54;77.86;99905.34;4984669;28;106019;-71
2022/01/28 06:09:47;;;;;;;3.78;1.27;;;;;;;2.62;77.24;99931.00;4984778;28;105985;-69
2022/01/28 06:12:12;;;;;;;6.90;2.10;;;;;;;2.68;76.58;99929.69;4985735;28;105883;-71
2022/01/28 06:14:37;;;;;;;7.15;1.50;;;;;;;2.73;76.70;99938.03;4984030;28;106956;-71
2022/01/28 06:17:03;;;;;;;11.15;3.40;;;;;;;2.79;75.95;99934.91;4983468;28;131592;-72
2022/01/28 06:19:28;;;;;;;5.45;1.30;;;;;;;2.83;75.87;99944.22;4984575;28;106054;-67
2022/01/28 06:21:54;;;;;;;4.32;1.17;;;;;;;2.85;75.63;99947.53;4985775;28;105889;-78
2022/01/28 06:24:19;;;;;;;5.53;1.65;;;;;;;2.89;75.43;99958.66;4984644;28;106211;-72
2022/01/28 06:26:45;;;;;;;8.57;1.60;;;;;;;2.91;75.85;99964.59;4984305;28;117966;-72
2022/01/28 06:29:12;;;;;;;9.45;1.92;;;;;;;2.94;75.54;99956.47;4982563;28;106888;-72
2022/01/28 06:31:38;;;;;;;7.03;1.90;;;;;;;2.98;75.71;99962.31;4985128;28;106483;-70
2022/01/28 06:34:04;;;;;;;6.47;1.10;;;;;;;3.01;75.41;99957.63;4984581;28;106348;-71
2022/01/28 06:36:29;;;;;;;11.32;1.92;;;;;;;3.01;74.84;99943.66;4984149;28;105834;-72
2022/01/28 06:38:55;;;;;;;8.80;1.60;;;;;;;3.00;74.87;99955.97;4983713;28;106266;-72
2022/01/28 06:41:20;;;;;;;8.32;1.42;;;;;;;3.02;74.56;99946.16;4984650;28;105928;-72
2022/01/28 06:43:45;;;;;;;4.75;2.00;;;;;;;3.02;74.59;99974.25;4984603;28;106225;-72
2022/01/28 06:46:11;;;;;;;9.48;1.73;;;;;;;3.01;74.36;99970.78;4983110;28;125632;-75
2022/01/28 06:48:36;;;;;;;8.38;2.15;;;;;;;3.01;74.61;99972.59;4983327;28;114221;-74
2022/01/28 06:51:01;;;;;;;5.18;1.38;;;;;;;3.00;74.40;99984.91;4983772;28;106156;-74
2022/01/28 06:53:27;;;;;;;5.40;1.40;;;;;;;3.02;74.62;99979.50;4984349;28;106276;-74
2022/01/28 06:55:52;;;;;;;9.07;1.92;;;;;;;3.03;74.59;99981.19;4983912;28;105999;-75
2022/01/28 06:58:17;;;;;;;9.23;1.80;;;;;;;3.03;73.81;99995.22;4984028;28;106677;-72
2022/01/28 07:00:42;;;;;;;4.38;1.38;;;;;;;3.06;74.01;99980.94;4977384;28;106037;-72
2022/01/28 07:03:10;;;;;;;7.32;1.50;;;;;;;3.08;74.35;99986.91;4970575;28;106491;-71
2022/01/28 07:05:36;;;;;;;7.63;2.42;;;;;;;3.09;74.11;99987.75;4970370;28;106006;-71
2022/01/28 07:08:03;;;;;;;9.75;1.35;;;;;;;3.10;73.94;99992.06;4970149;28;106120;-72
2022/01/28 07:10:28;;;;;;;6.20;1.45;;;;;;;3.12;73.90;99998.03;4970984;28;106024;-73
2022/01/28 07:12:54;;;;;;;8.95;2.00;;;;;;;3.11;73.79;100010.34;4970097;28;106188;-71
2022/01/28 07:15:25;;;;;;;9.55;1.83;;;;;;;3.10;73.78;99999.94;4970110;28;106027;-69
2022/01/28 07:17:56;;;;;;;6.18;1.33;;;;;;;3.12;73.85;100003.31;4969812;28;105743;-69
2022/01/28 07:20:21;;;;;;;4.43;1.58;;;;;;;3.13;73.35;99986.53;4970022;28;105966;-70
2022/01/28 07:22:47;;;;;;;19.30;1.77;;;;;;;3.12;73.70;100021.72;4965172;28;106209;-73
2022/01/28 07:25:12;;;;;;;5.97;1.75;;;;;;;3.12;73.20;100009.38;4950677;28;105886;-69
2022/01/28 07:27:38;;;;;;;4.15;1.05;;;;;;;3.15;73.42;100011.75;4950924;28;105904;-71
2022/01/28 07:30:06;;;;;;;5.70;1.63;;;;;;;3.17;73.38;100019.53;4951305;28;106561;-73
2022/01/28 07:32:32;;;;;;;7.53;2.15;;;;;;;3.21;73.50;100015.69;4950623;28;106226;-74
2022/01/28 07:34:57;;;;;;;7.97;1.63;;;;;;;3.27;73.33;100025.72;4950386;28;106722;-72
2022/01/28 07:37:22;;;;;;;9.10;1.98;;;;;;;3.32;73.35;100018.28;4949862;28;123315;-74
2022/01/28 07:39:49;;;;;;;3.30;1.30;;;;;;;3.37;73.46;100025.78;4949051;28;106119;-70
2022/01/28 07:42:16;;;;;;;7.13;1.30;;;;;;;3.41;73.21;100014.03;4950591;28;106121;-71
2022/01/28 07:44:42;;;;;;;6.43;1.75;;;;;;;3.42;72.75;100025.38;4950148;28;105970;-71
2022/01/28 07:47:07;;;;;;;15.52;2.15;;;;;;;3.38;72.58;100038.81;4949794;28;107138;-72
2022/01/28 07:49:32;;;;;;;6.13;1.50;;;;;;;3.39;72.88;100018.59;4950311;28;106282;-77
2022/01/28 07:51:57;;;;;;;11.18;2.05;;;;;;;3.37;72.49;100046.84;4950182;28;110683;-71
2022/01/28 07:54:23;;;;;;;9.48;2.35;;;;;;;3.36;72.59;100053.06;4949831;28;114152;-71
2022/01/28 07:56:52;;;;;;;6.45;1.23;;;;;;;3.34;72.38;100047.94;4951084;28;106003;-70
2022/01/28 07:59:18;;;;;;;13.00;1.92;;;;;;;3.35;72.88;100039.09;4959032;28;106113;-72
2022/01/28 08:01:43;;;;;;;9.13;2.15;;;;;;;3.36;72.48;100045.16;4960098;28;106319;-71
2022/01/28 08:04:09;;;;;;;8.95;3.17;;;;;;;3.36;72.45;100075.00;4964161;28;105984;-70
2022/01/28 08:06:35;;;;;;;9.00;1.92;;;;;;;3.35;72.65;100075.13;4962758;28;121937;-70
2022/01/28 08:09:00;;;;;;;8.77;1.60;;;;;;;3.38;72.57;100085.41;4961144;28;106143;-69
2022/01/28 08:11:25;;;;;;;5.97;1.33;;;;;;;3.38;72.52;100080.13;4957791;28;106354;-68
2022/01/28 08:13:51;;;;;;;8.60;2.10;;;;;;;3.40;72.17;100088.72;4962216;28;122375;-71
2022/01/28 08:16:16;;;;;;;5.20;1.52;;;;;;;3.41;71.75;100090.41;4968798;28;106105;-75
2022/01/28 08:18:41;;;;;;;5.68;1.65;;;;;;;3.42;71.98;100092.09;4970148;28;106040;-69
2022/01/28 08:21:06;;;;;;;8.63;1.83;;;;;;;3.44;71.91;100099.84;4968545;28;118264;-69
2022/01/28 08:23:32;;;;;;;8.85;2.20;;;;;;;3.43;72.43;100101.66;4969141;28;106027;-68
2022/01/28 08:25:58;;;;;;;8.32;2.05;;;;;;;3.44;72.36;100110.38;4969220;28;106287;-71
2022/01/28 08:28:23;;;;;;;5.80;1.90;;;;;;;3.43;72.20;100106.94;4969387;28;106274;-72
2022/01/28 08:30:48;;;;;;;9.60;2.30;;;;;;;3.44;72.10;100127.00;4967980;28;106241;-70
2022/01/28 08:33:14;;;;;;;5.05;1.58;;;;;;;3.47;71.76;100115.38;4968463;28;106072;-72
2022/01/28 08:35:40;;;;;;;4.47;1.67;;;;;;;3.47;72.30;100128.56;4968751;28;109491;-72
2022/01/28 08:38:18;;;;;;;7.95;1.90;;;;;;;3.47;72.43;100139.09;4969601;28;105963;-70
2022/01/28 08:40:43;;;;;;;3.08;1.33;;;;;;;3.48;71.94;100148.69;4969176;28;105977;-69
2022/01/28 08:43:08;;;;;;;7.07;2.03;;;;;;;3.45;72.29;100148.94;4968130;28;106003;-74
2022/01/28 08:45:34;;;;;;;6.78;1.60;;;;;;;3.42;72.07;100157.91;4968711;28;106194;-72
2022/01/28 08:48:00;;;;;;;10.82;2.20;;;;;;;3.42;72.37;100163.19;4969382;28;106083;-74
2022/01/28 08:50:25;;;;;;;6.85;1.65;;;;;;;3.41;72.42;100165.94;4965793;28;106138;-77
2022/01/28 08:52:50;;;;;;;6.90;2.08;;;;;;;3.39;72.40;100169.53;4955119;28;106122;-77
2022/01/28 08:55:16;;;;;;;10.07;2.28;;;;;;;3.38;72.72;100175.75;4949152;28;107572;-75
2022/01/28 08:57:43;;;;;;;8.60;1.83;;;;;;;3.39;72.71;100176.59;4949867;28;105989;-77
2022/01/28 09:00:17;;;;;;;5.28;2.20;;;;;;;3.39;72.63;100192.41;4963110;28;106263;-72
2022/01/28 09:02:42;;;;;;;12.73;2.42;;;;;;;3.44;72.75;100194.66;4968462;28;106096;-74
2022/01/28 09:05:08;;;;;;;7.03;1.70;;;;;;;3.46;72.60;100190.94;4967839;28;111054;-73
2022/01/28 09:07:33;;;;;;;5.90;1.55;;;;;;;3.52;72.14;100205.41;4966681;28;106115;-73
2022/01/28 09:10:04;;;;;;;8.65;2.20;;;;;;;3.53;72.27;100215.00;4958991;28;106323;-72
2022/01/28 09:12:39;;;;;;;7.57;1.80;;;;;;;3.58;72.63;100228.59;4966552;28;105947;-77
2022/01/28 09:15:06;;;;;;;5.95;1.67;;;;;;;3.64;72.25;100219.41;4967772;28;105954;-75
2022/01/28 09:17:32;;;;;;;6.97;2.13;;;;;;;3.64;72.30;100214.94;4968167;28;106411;-73
2022/01/28 09:19:57;;;;;;;8.73;2.10;;;;;;;3.65;72.75;100226.31;4966642;28;106334;-74
2022/01/28 09:22:23;;;;;;;6.10;2.17;;;;;;;3.68;71.98;100236.63;4967678;28;107445;-74
2022/01/28 09:24:49;;;;;;;8.15;2.08;;;;;;;3.71;71.67;100234.56;4967114;28;106087;-73
2022/01/28 09:27:14;;;;;;;9.50;2.15;;;;;;;3.69;72.04;100231.22;4967833;28;106366;-74
2022/01/28 09:29:39;;;;;;;11.05;2.70;;;;;;;3.70;72.04;100256.63;4968284;28;106368;-74
2022/01/28 09:32:05;;;;;;;8.27;1.85;;;;;;;3.73;71.85;100263.41;4967703;28;116556;-76
2022/01/28 09:34:30;;;;;;;10.50;2.10;;;;;;;3.75;72.05;100261.50;4968403;28;105984;-75
2022/01/28 09:36:56;;;;;;;7.10;1.77;;;;;;;3.77;72.05;100258.75;4968827;28;105802;-71
2022/01/28 09:39:22;;;;;;;5.13;1.48;;;;;;;3.79;71.47;100268.19;4968558;28;106219;-74
2022/01/28 09:41:48;;;;;;;4.05;1.77;;;;;;;3.84;71.48;100270.44;4968636;28;106017;-75
2022/01/28 09:44:16;;;;;;;6.55;2.38;;;;;;;3.87;71.52;100259.69;4968097;28;106043;-73
2022/01/28 09:46:42;;;;;;;6.15;1.25;;;;;;;3.86;71.14;100273.81;4969073;28;106053;-76
2022/01/28 09:49:07;;;;;;;7.40;1.98;;;;;;;3.86;71.25;100282.53;4968241;28;106168;-72
2022/01/28 09:51:32;;;;;;;11.88;2.75;;;;;;;3.86;71.30;100285.19;4968274;28;106073;-77
2022/01/28 09:53:58;;;;;;;7.55;1.77;;;;;;;3.90;71.45;100291.06;4967829;28;106367;-76
2022/01/28 09:56:23;;;;;;;13.95;2.38;;;;;;;3.91;71.41;100287.47;4967019;28;106441;-76
2022/01/28 09:58:48;;;;;;;9.00;1.92;;;;;;;3.97;71.19;100291.41;4967839;28;106096;-76
2022/01/28 10:01:14;;;;;;;14.13;2.10;;;;;;;4.04;71.22;100303.94;4967177;28;120439;-75
2022/01/28 10:03:39;;;;;;;6.53;2.10;;;;;;;4.10;70.94;100301.75;4967186;28;106167;-74
2022/01/28 10:06:05;;;;;;;8.20;1.77;;;;;;;4.12;70.99;100305.94;4968302;28;106385;-73
2022/01/28 10:08:32;;;;;;;8.60;2.05;;;;;;;4.13;70.72;100319.97;4967587;28;106357;-72
2022/01/28 10:11:04;;;;;;;6.43;1.70;;;;;;;4.14;71.14;100313.72;4967107;28;105957;-70
2022/01/28 10:14:15;;;;;;;6.40;2.05;;;;;;;4.12;71.05;100321.78;4967422;28;105970;-72
2022/01/28 10:16:31;;;;;;;9.73;2.30;;;;;;;4.11;71.24;100324.53;4968432;28;105870;-70
2022/01/28 10:18:58;;;;;;;10.27;2.22;;;;;;;4.13;70.90;100322.59;4967024;28;106158;-73
2022/01/28 10:21:27;;;;;;;9.38;1.73;;;;;;;4.16;70.56;100332.91;4967585;28;106004;-72
2022/01/28 10:24:01;;;;;;;5.60;1.83;;;;;;;4.16;70.81;100346.94;4967369;28;105888;-70
2022/01/28 10:26:31;;;;;;;6.72;1.67;;;;;;;4.19;70.88;100348.47;4967822;28;106091;-71
2022/01/28 10:28:58;;;;;;;4.13;1.23;;;;;;;4.19;71.22;100351.13;4966601;28;106240;-72
2022/01/28 10:31:33;;;;;;;3.30;1.63;;;;;;;4.19;70.69;100322.09;4966900;28;106047;-72
2022/01/28 10:34:13;;;;;;;8.98;1.52;;;;;;;4.16;70.94;100372.47;4967327;28;105925;-71
2022/01/28 10:36:39;;;;;;;5.32;2.33;;;;;;;4.13;70.94;100365.63;4970799;28;106061;-71
2022/01/28 10:39:04;;;;;;;7.43;1.92;;;;;;;4.12;71.27;100373.69;4970518;28;106191;-73
2022/01/28 10:41:29;;;;;;;7.78;1.88;;;;;;;4.08;71.26;100383.63;4969952;28;106284;-70
2022/01/28 10:43:57;;;;;;;6.85;1.52;;;;;;;4.05;71.18;100368.88;4970368;28;105818;-71
2022/01/28 10:46:33;;;;;;;4.10;1.38;;;;;;;4.00;71.02;100392.13;4971004;28;105861;-73
2022/01/28 10:49:02;;;;;;;9.18;2.08;;;;;;;3.95;71.09;100415.41;4970006;28;106183;-74
2022/01/28 10:51:49;;;;;;;9.80;2.30;;;;;;;3.90;71.33;100407.84;4969872;28;106006;-73
2022/01/28 10:54:17;;;;;;;8.20;2.03;;;;;;;3.86;71.24;100406.41;4969736;28;105944;-74
2022/01/28 10:56:48;;;;;;;10.38;1.88;;;;;;;3.87;71.90;100421.28;4971121;28;106229;-70
2022/01/28 10:59:16;;;;;;;9.10;2.42;;;;;;;3.94;71.78;100423.41;4970118;28;106218;-71
2022/01/28 11:01:43;;;;;;;7.28;2.00;;;;;;;3.99;71.74;100419.47;4969883;28;106622;-69
2022/01/28 11:04:12;;;;;;;7.55;2.40;;;;;;;4.03;71.89;100415.63;4970049;28;106335;-70
2022/01/28 11:06:38;;;;;;;11.88;2.53;;;;;;;4.06;71.59;100422.47;4970739;28;106230;-73
2022/01/28 11:09:04;;;;;;;6.97;1.70;;;;;;;4.11;71.50;100422.91;4968694;28;106272;-70
2022/01/28 11:11:30;;;;;;;10.07;2.25;;;;;;;4.16;71.74;100420.75;4969774;28;120891;-70
2022/01/28 11:13:56;;;;;;;8.45;2.35;;;;;;;4.16;71.37;100406.75;4969824;28;105933;-70
2022/01/28 11:16:21;;;;;;;12.82;2.25;;;;;;;4.15;71.37;100420.88;4968857;28;105935;-71
2022/01/28 11:18:47;;;;;;;10.40;2.13;;;;;;;4.17;70.99;100429.50;4969261;28;106208;-70
2022/01/28 11:21:16;;;;;;;5.90;2.08;;;;;;;4.20;71.29;100418.72;4969428;28;106773;-77
2022/01/28 11:23:53;;;;;;;9.93;1.95;;;;;;;4.23;71.00;100423.75;4969583;28;105831;-73
2022/01/28 11:26:40;;;;;;;6.43;2.15;;;;;;;4.25;71.05;100419.16;4970543;28;105879;-72
2022/01/28 11:29:27;;;;;;;7.80;1.83;;;;;;;4.28;70.78;100432.13;4969621;28;106135;-72
2022/01/28 11:31:55;;;;;;;12.20;2.85;;;;;;;4.26;70.73;100431.41;4969335;28;105923;-72
2022/01/28 11:34:27;;;;;;;8.65;3.13;;;;;;;4.29;70.95;100432.94;4969443;28;105878;-72
2022/01/28 11:37:26;;;;;;;8.13;2.35;;;;;;;4.35;70.93;100435.94;4970184;28;106270;-73
2022/01/28 11:39:51;;;;;;;9.18;2.40;;;;;;;4.38;70.78;100438.31;4969641;28;105890;-73
2022/01/28 11:42:23;;;;;;;5.85;1.90;;;;;;;4.43;70.90;100437.09;4969142;28;106976;-72
2022/01/28 11:44:56;;;;;;;15.75;2.83;;;;;;;4.44;70.65;100426.44;4969050;28;105937;-72
2022/01/28 11:47:40;;;;;;;10.45;3.03;;;;;;;4.52;70.38;100444.28;4970295;28;105954;-72
2022/01/28 11:50:19;;;;;;;13.25;2.70;;;;;;;4.66;70.45;100438.72;4968979;28;106223;-72
2022/01/28 11:52:47;;;;;;;10.93;3.38;;;;;;;4.71;69.83;100438.34;4969369;28;106118;-73
2022/01/28 11:55:16;;;;;;;19.30;2.38;;;;;;;4.74;69.83;100432.81;4969301;28;106041;-73
2022/01/28 11:57:52;;;;;;;11.48;2.50;;;;;;;4.77;69.55;100442.28;4970276;28;106172;-71
2022/01/28 12:00:20;;;;;;;8.65;2.38;;;;;;;4.77;69.44;100442.28;4969475;28;106170;-72
2022/01/28 12:02:47;;;;;;;9.10;1.90;;;;;;;4.79;69.41;100449.09;4969287;28;106663;-70
2022/01/28 12:05:43;;;;;;;7.32;2.47;;;;;;;4.78;69.50;100446.59;4969265;28;106039;-70
2022/01/28 12:08:10;;;;;;;9.07;1.65;;;;;;;4.77;68.68;100448.41;4969672;28;106265;-69
2022/01/28 12:10:42;;;;;;;6.47;1.48;;;;;;;4.75;69.02;100451.16;4969239;28;106439;-70
2022/01/28 12:13:12;;;;;;;9.75;1.70;;;;;;;4.73;68.63;100463.66;4968892;28;105841;-73
2022/01/28 12:16:00;;;;;;;5.63;1.67;;;;;;;4.73;68.51;100468.94;4969127;28;106542;-73
2022/01/28 12:18:54;;;;;;;9.23;2.10;;;;;;;4.70;68.62;100478.88;4969191;28;106446;-73
2022/01/28 12:21:31;;;;;;;11.00;2.95;;;;;;;4.68;68.76;100479.00;4969616;28;105899;-74
2022/01/28 12:24:18;;;;;;;10.80;2.70;;;;;;;4.67;68.39;100479.97;4968763;28;107816;-75
2022/01/28 12:26:59;;;;;;;9.77;2.42;;;;;;;4.67;68.60;100482.59;4968961;28;106087;-76
2022/01/28 12:29:29;;;;;;;14.77;2.53;;;;;;;4.68;68.26;100492.22;4969566;28;106099;-76
2022/01/28 12:31:56;;;;;;;4.55;1.48;;;;;;;4.69;67.91;100482.50;4969093;28;106209;-72
2022/01/28 12:34:22;;;;;;;8.90;1.58;;;;;;;4.67;67.64;100498.44;4967463;28;106856;-74
2022/01/28 12:36:48;;;;;;;5.28;1.77;;;;;;;4.63;67.55;100489.09;4968485;28;106028;-73
2022/01/28 12:39:21;;;;;;;9.45;1.67;;;;;;;4.64;67.45;100503.16;4968807;28;105937;-73
2022/01/28 12:41:53;;;;;;;8.45;2.80;;;;;;;4.64;67.39;100493.41;4969150;28;105931;-73
2022/01/28 12:44:19;;;;;;;7.00;2.10;;;;;;;4.64;67.59;100501.34;4962193;28;105884;-70
2022/01/28 12:46:53;;;;;;;11.73;2.42;;;;;;;4.65;67.54;100503.03;4961465;28;105819;-73
2022/01/28 12:49:28;;;;;;;11.57;2.25;;;;;;;4.66;67.33;100503.84;4968653;28;105940;-77
2022/01/28 12:51:56;;;;;;;9.15;1.88;;;;;;;4.68;67.42;100496.66;4968743;28;105899;-73
2022/01/28 12:54:35;;;;;;;4.18;2.10;;;;;;;4.68;67.07;100508.03;4966335;28;107208;-72
2022/01/28 12:57:01;;;;;;;10.10;2.70;;;;;;;4.68;66.76;100501.94;4968013;28;106010;-71
2022/01/28 12:59:26;;;;;;;6.85;2.17;;;;;;;4.69;66.43;100509.72;4968079;28;106277;-72
2022/01/28 13:01:53;;;;;;;8.93;2.13;;;;;;;4.73;66.55;100511.16;4968293;28;106226;-72
2022/01/28 13:04:21;;;;;;;9.13;2.88;;;;;;;4.77;66.21;100526.72;4968022;28;106714;-72
2022/01/28 13:09:21;;;;;;;5.57;1.42;;;;;;;4.81;65.65;100522.88;4968780;28;105914;-73
2022/01/28 13:11:51;;;;;;;14.40;2.47;;;;;;;4.80;65.49;100531.75;4968111;28;105910;-74
2022/01/28 13:14:27;;;;;;;10.63;2.03;;;;;;;4.78;65.41;100549.53;4967851;28;105955;-74
2022/01/28 13:16:53;;;;;;;7.13;1.92;;;;;;;4.75;65.38;100559.38;4967555;28;105874;-75
2022/01/28 13:19:19;;;;;;;7.53;1.38;;;;;;;4.75;65.36;100551.44;4964302;28;106029;-75
2022/01/28 13:21:46;;;;;;;5.53;2.08;;;;;;;4.71;65.18;100544.72;4951849;28;106003;-74
2022/01/28 13:24:24;;;;;;;10.68;2.20;;;;;;;4.69;65.15;100559.03;4948189;28;106998;-73
2022/01/28 13:27:06;;;;;;;7.05;1.92;;;;;;;4.64;65.45;100572.59;4947404;28;106000;-73
2022/01/28 13:29:47;;;;;;;10.73;1.52;;;;;;;4.62;65.22;100571.88;4949291;28;105992;-73
2022/01/28 13:32:17;;;;;;;11.32;2.58;;;;;;;4.61;65.40;100566.72;4948828;28;106152;-73
2022/01/28 13:34:49;;;;;;;5.07;1.70;;;;;;;4.60;65.05;100576.44;4948334;28;105937;-73
2022/01/28 13:37:31;;;;;;;10.55;2.08;;;;;;;4.55;65.30;100574.16;4948392;28;106051;-74
2022/01/28 13:39:57;;;;;;;13.43;1.90;;;;;;;4.54;65.32;100590.13;4949278;28;105999;-72
2022/01/28 13:42:23;;;;;;;12.60;3.53;;;;;;;4.49;65.01;100566.72;4948745;28;106107;-71
2022/01/28 13:44:50;;;;;;;12.23;2.72;;;;;;;4.45;65.15;100593.50;4948230;28;106720;-73
2022/01/28 13:47:17;;;;;;;5.90;1.98;;;;;;;4.42;65.03;100602.47;4948121;28;106043;-73
2022/01/28 13:49:43;;;;;;;6.30;1.88;;;;;;;4.38;64.94;100614.22;4948810;28;106179;-75
2022/01/28 13:52:41;;;;;;;10.07;2.85;;;;;;;4.35;65.46;100606.56;4948697;28;106115;-75
2022/01/28 13:55:33;;;;;;;6.10;1.65;;;;;;;4.33;65.41;100609.31;4947685;28;106643;-73
2022/01/28 13:58:03;;;;;;;12.75;1.80;;;;;;;4.30;65.30;100617.44;4948149;28;105833;-75
2022/01/28 15:16:11;;;;;;;9.70;2.47;;;;;;;3.53;68.31;100752.38;5047313;27;105960;-71
2022/01/28 15:18:36;;;;;;;9.88;3.22;;;;;;;3.60;68.31;100761.50;5044893;27;105942;-75
2022/01/28 15:21:02;;;;;;;10.23;2.75;;;;;;;3.62;68.01;100749.03;5045434;27;106198;-72
2022/01/28 15:23:27;;;;;;;8.88;2.47;;;;;;;3.66;68.04;100758.44;5045254;27;106122;-72
2022/01/28 15:25:52;;;;;;;10.38;2.85;;;;;;;3.69;67.70;100754.72;5045106;27;106245;-72
2022/01/28 15:28:20;;;;;;;13.60;3.63;;;;;;;3.69;67.81;100742.41;5045660;27;106029;-72
2022/01/28 15:36:14;;;;;;;7.57;2.78;;;;;;;3.64;67.73;100764.78;5045356;27;105974;-71
2022/01/28 15:38:39;;;;;;;8.95;2.53;;;;;;;3.62;67.43;100762.22;5046239;27;105928;-70
2022/01/28 15:41:08;;;;;;;8.25;2.17;;;;;;;3.56;67.17;100760.06;5045461;27;106156;-72
2022/01/28 15:43:34;;;;;;;11.48;2.60;;;;;;;3.49;67.28;100767.53;5044431;27;105831;-71
2022/01/28 15:45:59;;;;;;;11.93;2.55;;;;;;;3.41;67.19;100787.50;5045237;27;105802;-71
2022/01/28 15:48:25;;;;;;;10.05;2.22;;;;;;;3.35;67.65;100786.16;5045809;27;105835;-73
2022/01/28 15:50:52;;;;;;;8.70;2.42;;;;;;;3.36;67.95;100785.19;5045562;27;106072;-72
2022/01/28 15:53:21;;;;;;;9.82;2.63;;;;;;;3.33;67.39;100799.41;5044883;27;106680;-75
2022/01/28 15:55:46;;;;;;;10.55;3.08;;;;;;;3.28;67.47;100804.16;5044990;27;105894;-74
2022/01/28 15:58:12;;;;;;;10.88;2.35;;;;;;;3.25;67.47;100807.00;5046125;27;105969;-72
2022/01/28 16:00:37;;;;;;;6.13;2.40;;;;;;;3.26;67.51;100808.69;5045150;27;107279;-72
2022/01/28 16:03:03;;;;;;;8.95;3.25;;;;;;;3.29;68.02;100808.47;5045002;27;106671;-70
2022/01/28 16:05:28;;;;;;;15.05;2.88;;;;;;;3.34;67.56;100806.34;5043519;27;106207;-70
2022/01/28 16:07:54;;;;;;;7.40;1.98;;;;;;;3.38;68.10;100817.53;5045245;27;105865;-70
2022/01/28 16:10:24;;;;;;;9.15;2.50;;;;;;;3.43;67.89;100825.09;5044938;27;105835;-71
